Airfield :
LOGIN :

Register | Disclaimer

   EN    FR    IT 

 










Legend :    VFR   Marginal VFR   IFR   Intensive IFR   Very Intensive IFR
Visi :
Ceiling :
>= 8 km
>= 3000ft
5 to 8 km
1000 to 3000 ft
1500m to 5 km
500 to 1000 ft
800 to 1500m
200 to 500 ft
< 800m
< 200 ft
Symbols :   Thunderstorms  Fog  Heavy snow  Heavy precipitations  Wind > 20 kt
SIGMETs :     Misc.  Thunderstorms  Icing  Turbulence  Mountain Waves  Volcanic Ashes






- Airport Elevation : 84 ft


LFBC - Cazaux

CURRENT METAR :
  • 250000Z AUTO 23008KT 200V260 9999 SCT020 OVC031 11/08 Q1020

EXPIRED METARs :
  • 242330Z AUTO 24008KT 9999 BKN022 OVC027 11/08 Q1021
  • 242300Z AUTO 24009KT 9999 BKN024 OVC030 11/07 Q1022
  • 242230Z AUTO 24008KT 210V270 9999 FEW019 OVC025 11/07 Q1022
  • 242200Z AUTO 24007KT 210V270 9999 BKN023 10/07 Q1022
  • 242130Z AUTO 23006KT 9999 OVC023 10/07 Q1022
  • 242100Z AUTO 23006KT 9999 OVC023 10/07 Q1022

TAF TAF LFBC
Valid from the 24 at 15:00 until the 25 at 15:00 UTC


241400Z 2415/2515 VRB02KT 9999 FEW014
TEMPO 2416/2420 26010KT SCT010 BKN014
TEMPO 2420/2424 BKN010
PROB40
TEMPO 2500/2505 4000 -DZ FEW004 OVC008
FM250630 25012KT 2000 RADZ BKN005 OVC008
BECMG 2509/2510 9999 NSW
PROB40
TEMPO 2509/2515 26015G25KT BKN007 BKN015TCU
PROB30
TEMPO 2509/2515 26020G35KT 4000 -SHRA



MET'MAP, your aeronautical weather chart ! - Copyright ORBIFLY December 2007 - Disclaimer

ORBIFLY MET'MAP TEAM :

Programming & Development : Alexandra Zaïnal
Concept & original design : Baudouin d'Aumeries
Assistance for programming : Marc-Olivier Méhu
Technical & hardware support : Manuel Goepfert

Contact : metmap@orbifly.com




SOURCES & CREDITS :

   NOAA